Time;durP1;ratioP1;P1;durP2;ratioP2;P2;SDS_P1;SDS_P2;PMS_P1;PMS_P2;Temp;Humidity;BMP_temperature;BMP_pressure;BME280_temperature;BME280_humidity;BME280_pressure;Samples;Min_cycle;Max_cycle;Signal;HPM_P1;HPM_P2
2022/04/27 00:00:50;;;;;;;5.50;3.60;;;;;9.20;101683.00;;;;5029301;28;20237;-71
2022/04/27 00:03:37;;;;;;;8.47;4.00;;;;;9.10;101693.00;;;;5032897;28;20311;-72
2022/04/27 00:06:23;;;;;;;6.47;3.67;;;;;9.10;101696.00;;;;5028990;28;20236;-72
2022/04/27 00:09:11;;;;;;;6.60;4.13;;;;;9.10;101692.00;;;;5040096;28;20230;-71
2022/04/27 00:12:00;;;;;;;5.00;4.00;;;;;9.00;101691.00;;;;5026836;28;20332;-72
2022/04/27 00:14:47;;;;;;;5.53;3.60;;;;;8.90;101691.00;;;;5030870;28;20295;-73
2022/04/27 00:17:33;;;;;;;7.37;3.97;;;;;8.80;101687.00;;;;5034673;28;20229;-72
2022/04/27 00:20:19;;;;;;;4.77;3.53;;;;;8.70;101688.00;;;;5026705;28;20233;-72
2022/04/27 00:23:06;;;;;;;7.93;3.93;;;;;8.70;101681.00;;;;5026956;28;20245;-72
2022/04/27 00:25:52;;;;;;;8.77;4.10;;;;;8.70;101683.00;;;;5026412;28;20796;-72
2022/04/27 00:28:39;;;;;;;7.73;4.00;;;;;8.60;101682.00;;;;5026800;28;20234;-73
2022/04/27 00:31:26;;;;;;;7.67;3.80;;;;;8.60;101678.00;;;;5026643;28;20312;-72
2022/04/27 00:34:13;;;;;;;4.80;3.57;;;;;8.60;101684.00;;;;5031816;28;20261;-72
2022/04/27 00:36:59;;;;;;;6.80;3.50;;;;;8.40;101668.00;;;;5046068;28;20240;-71
2022/04/27 00:39:46;;;;;;;5.00;3.53;;;;;8.40;101687.00;;;;5046099;28;20294;-72
2022/04/27 00:42:32;;;;;;;5.63;3.23;;;;;8.40;101681.00;;;;5026592;28;20611;-73
2022/04/27 00:45:21;;;;;;;6.13;4.03;;;;;8.30;101693.00;;;;5026541;28;20229;-72
2022/04/27 00:48:09;;;;;;;5.17;3.63;;;;;8.20;101691.00;;;;5026135;28;20233;-72
2022/04/27 00:50:56;;;;;;;4.73;3.47;;;;;8.20;101678.00;;;;5022077;28;20265;-70
2022/04/27 00:53:43;;;;;;;7.27;3.63;;;;;8.10;101684.00;;;;5032260;28;20233;-73
2022/04/27 00:56:29;;;;;;;4.70;3.67;;;;;8.10;101689.00;;;;5008266;28;20513;-72
2022/04/27 00:59:16;;;;;;;7.57;3.90;;;;;8.00;101689.00;;;;5025642;28;20284;-72
2022/04/27 01:02:04;;;;;;;6.50;3.60;;;;;7.90;101692.00;;;;5026286;28;20242;-73
2022/04/27 01:04:52;;;;;;;6.77;3.50;;;;;7.90;101696.00;;;;5042528;28;20228;-70
2022/04/27 01:07:39;;;;;;;5.07;3.57;;;;;7.90;101693.00;;;;5028303;28;20565;-70
2022/04/27 01:10:26;;;;;;;5.67;3.87;;;;;7.80;101697.00;;;;5025636;28;20268;-71
2022/04/27 01:13:13;;;;;;;4.87;3.40;;;;;7.70;101696.00;;;;5037249;28;20248;-71
2022/04/27 01:15:59;;;;;;;5.33;3.70;;;;;7.70;101691.00;;;;5045410;28;20243;-71
2022/04/27 01:18:48;;;;;;;6.00;4.37;;;;;7.70;101704.00;;;;5033027;28;20228;-70
2022/04/27 01:21:36;;;;;;;6.50;3.80;;;;;7.60;101701.00;;;;5026089;28;21113;-71
2022/04/27 01:24:25;;;;;;;6.53;3.77;;;;;7.70;101690.00;;;;5025650;28;20232;-71
2022/04/27 01:27:11;;;;;;;7.63;3.73;;;;;7.80;101683.00;;;;5025497;28;20233;-71
2022/04/27 01:29:57;;;;;;;4.70;3.73;;;;;7.70;101713.00;;;;5025400;28;20248;-71
2022/04/27 01:32:43;;;;;;;5.50;3.90;;;;;7.60;101721.00;;;;5013760;28;20600;-71
2022/04/27 01:35:30;;;;;;;7.97;3.93;;;;;7.60;101715.00;;;;5027561;28;20303;-71
2022/04/27 01:38:18;;;;;;;6.07;3.87;;;;;7.60;101718.00;;;;5024860;28;20303;-71
2022/04/27 01:41:04;;;;;;;5.60;3.67;;;;;7.60;101725.00;;;;5031001;28;20368;-69
2022/04/27 01:43:51;;;;;;;5.10;3.00;;;;;7.60;101716.00;;;;5025011;28;20725;-71
2022/04/27 01:46:37;;;;;;;7.97;4.00;;;;;7.50;101715.00;;;;5034594;28;20300;-71
2022/04/27 01:55:19;;;;;;;5.90;4.20;;;;;7.30;101726.00;;;;4932072;28;20244;-71
2022/04/27 01:58:05;;;;;;;7.80;3.63;;;;;7.00;101734.00;;;;4925363;28;21388;-71
2022/04/27 02:00:51;;;;;;;5.93;3.50;;;;;7.10;101739.00;;;;4934487;28;20303;-71
2022/04/27 02:03:38;;;;;;;5.20;3.60;;;;;7.10;101737.00;;;;4921674;28;20721;-71
2022/04/27 02:06:24;;;;;;;5.80;3.60;;;;;7.00;101736.00;;;;4946812;28;20232;-72
2022/04/27 02:09:11;;;;;;;5.57;3.63;;;;;6.90;101737.00;;;;4952763;28;20355;-71
2022/04/27 02:11:58;;;;;;;7.97;3.87;;;;;6.90;101737.00;;;;4944763;28;20243;-70
2022/04/27 02:14:45;;;;;;;5.40;3.50;;;;;6.80;101744.00;;;;4945837;28;20376;-70
2022/04/27 02:17:31;;;;;;;6.53;4.13;;;;;6.90;101751.00;;;;4937478;28;20365;-71
2022/04/27 02:20:19;;;;;;;6.53;3.57;;;;;6.70;101742.00;;;;4945499;28;20864;-71
2022/04/27 02:23:05;;;;;;;6.37;3.83;;;;;6.80;101743.00;;;;4944274;28;20657;-71
2022/04/27 02:25:51;;;;;;;7.63;4.33;;;;;6.80;101746.00;;;;4932008;28;20231;-71
2022/04/27 02:28:39;;;;;;;5.00;3.80;;;;;6.70;101738.00;;;;4921750;28;20303;-71
2022/04/27 02:31:25;;;;;;;8.63;3.80;;;;;6.60;101745.00;;;;4946077;28;20307;-71
2022/04/27 02:34:11;;;;;;;6.27;3.67;;;;;6.60;101751.00;;;;4946629;28;20235;-71
2022/04/27 02:36:58;;;;;;;8.77;4.20;;;;;6.60;101754.00;;;;4946491;28;20364;-72
2022/04/27 02:39:45;;;;;;;8.37;4.20;;;;;6.60;101759.00;;;;4925714;28;20300;-72
2022/04/27 02:42:31;;;;;;;9.87;4.40;;;;;6.50;101764.00;;;;4919828;28;20657;-71
2022/04/27 02:45:19;;;;;;;4.87;3.63;;;;;6.50;101763.00;;;;4927100;28;20236;-71
2022/04/27 02:48:06;;;;;;;8.87;4.20;;;;;6.50;101760.00;;;;4945627;28;20262;-71
2022/04/27 02:53:56;;;;;;;6.47;4.10;;;;;6.40;101764.00;;;;4923719;28;20292;-72
2022/04/27 02:56:43;;;;;;;7.17;3.90;;;;;6.30;101766.00;;;;4922303;28;20368;-71
2022/04/27 02:59:29;;;;;;;7.73;3.90;;;;;6.30;101761.00;;;;4920072;28;20638;-71
2022/04/27 03:02:17;;;;;;;7.50;4.10;;;;;6.20;101761.00;;;;4942491;28;20310;-71
2022/04/27 03:05:03;;;;;;;6.50;3.93;;;;;6.20;101761.00;;;;4946390;28;20251;-71
2022/04/27 03:07:50;;;;;;;7.53;4.10;;;;;6.10;101763.00;;;;4946517;28;20310;-71
2022/04/27 03:10:36;;;;;;;8.00;4.30;;;;;6.10;101766.00;;;;4946267;28;21343;-71
2022/04/27 03:13:22;;;;;;;8.13;4.70;;;;;6.10;101760.00;;;;4946000;28;20700;-70
2022/04/27 03:16:09;;;;;;;7.80;3.83;;;;;6.00;101768.00;;;;4946163;28;20295;-72
2022/04/27 03:18:56;;;;;;;7.57;4.23;;;;;5.80;101757.00;;;;4926985;28;20760;-72
2022/04/27 03:21:43;;;;;;;8.23;4.07;;;;;5.90;101753.00;;;;4928509;28;20368;-72
2022/04/27 03:24:29;;;;;;;8.20;4.50;;;;;5.60;101770.00;;;;4923108;28;20243;-72
2022/04/27 03:27:15;;;;;;;7.03;4.50;;;;;5.70;101769.00;;;;4930811;28;20240;-71
2022/04/27 03:30:01;;;;;;;9.73;4.23;;;;;5.70;101758.00;;;;4930478;28;20398;-70
2022/04/27 03:32:48;;;;;;;8.63;4.30;;;;;5.70;101765.00;;;;4930465;28;20240;-72
2022/04/27 03:35:36;;;;;;;6.47;4.30;;;;;5.70;101772.00;;;;4930772;28;20228;-71
2022/04/27 03:38:22;;;;;;;5.57;4.03;;;;;5.70;101779.00;;;;4930271;28;20315;-71
2022/04/27 03:41:08;;;;;;;10.33;4.63;;;;;5.60;101780.00;;;;4930324;28;20773;-71
2022/04/27 03:43:55;;;;;;;5.87;4.33;;;;;5.70;101762.00;;;;4930437;28;20236;-71
2022/04/27 03:46:41;;;;;;;6.47;4.20;;;;;5.60;101789.00;;;;4924997;28;20252;-72
2022/04/27 03:49:36;;;;;;;10.97;4.73;;;;;5.50;101761.00;;;;4923772;28;20236;-69
2022/04/27 03:52:23;;;;;;;9.33;4.40;;;;;5.50;101795.00;;;;4929460;28;20249;-71
2022/04/27 03:55:09;;;;;;;6.83;4.40;;;;;5.50;101796.00;;;;4929974;28;20245;-71
2022/04/27 03:57:57;;;;;;;8.17;4.50;;;;;5.50;101788.00;;;;4930258;28;20248;-72
2022/04/27 04:00:44;;;;;;;7.07;4.50;;;;;5.40;101806.00;;;;4926694;28;20232;-69
2022/04/27 04:03:30;;;;;;;8.47;4.03;;;;;5.50;101807.00;;;;4928027;28;20769;-70
2022/04/27 04:06:17;;;;;;;8.57;4.27;;;;;5.50;101806.00;;;;4929778;28;20845;-71
2022/04/27 04:09:04;;;;;;;9.10;4.63;;;;;5.50;101808.00;;;;4929842;28;20288;-71
2022/04/27 04:11:50;;;;;;;6.10;4.03;;;;;5.50;101802.00;;;;4929903;28;20236;-72
2022/04/27 04:14:36;;;;;;;9.00;4.93;;;;;5.60;101816.00;;;;4923443;28;20236;-69
2022/04/27 04:17:23;;;;;;;8.37;5.30;;;;;5.50;101807.00;;;;4929724;28;20236;-71
2022/04/27 04:20:10;;;;;;;6.37;4.50;;;;;5.50;101811.00;;;;4927693;28;20325;-70
2022/04/27 04:22:57;;;;;;;7.97;4.73;;;;;5.40;101810.00;;;;4925888;28;20269;-71
2022/04/27 04:28:48;;;;;;;7.10;4.73;;;;;5.40;101805.00;;;;4924615;28;20309;-71
2022/04/27 04:31:35;;;;;;;10.90;4.90;;;;;5.40;101814.00;;;;4929208;28;20350;-69
2022/04/27 04:34:26;;;;;;;7.50;4.50;;;;;5.20;101812.00;;;;4920991;28;20236;-70
2022/04/27 04:37:13;;;;;;;8.77;4.93;;;;;5.30;101823.00;;;;4929397;28;20268;-70
2022/04/27 04:39:59;;;;;;;7.77;4.53;;;;;5.40;101828.00;;;;4929156;28;20244;-73
2022/04/27 04:42:48;;;;;;;7.30;4.30;;;;;5.20;101827.00;;;;4923940;28;20966;-70
2022/04/27 04:45:34;;;;;;;8.57;4.93;;;;;5.20;101841.00;;;;4922699;28;20246;-70
2022/04/27 04:48:22;;;;;;;9.17;5.13;;;;;5.30;101830.00;;;;4928899;28;20231;-71
2022/04/27 04:51:08;;;;;;;12.20;5.10;;;;;5.40;101841.00;;;;4926356;28;20378;-71
2022/04/27 04:54:15;;;;;;;7.90;4.80;;;;;5.50;101843.00;;;;4940768;28;20227;-72
2022/04/27 04:57:01;;;;;;;8.63;4.73;;;;;5.50;101847.00;;;;4948185;28;20246;-71
2022/04/27 04:59:55;;;;;;;7.50;4.60;;;;;5.70;101838.00;;;;4930661;28;20351;-71
2022/04/27 05:02:41;;;;;;;8.20;5.13;;;;;5.70;101843.00;;;;4917453;28;20804;-71
2022/04/27 05:05:28;;;;;;;9.50;5.03;;;;;5.70;101846.00;;;;4925412;28;20606;-71
2022/04/27 05:08:14;;;;;;;14.90;4.77;;;;;5.80;101845.00;;;;4928933;28;20364;-70
2022/04/27 05:11:01;;;;;;;9.10;4.97;;;;;5.80;101845.00;;;;4947446;28;20239;-69
2022/04/27 05:13:47;;;;;;;10.07;4.83;;;;;5.70;101870.00;;;;4947877;28;20239;-70
2022/04/27 05:16:36;;;;;;;10.37;5.60;;;;;5.80;101862.00;;;;4922710;28;20729;-71
2022/04/27 05:19:27;;;;;;;6.80;4.67;;;;;6.00;101850.00;;;;4943752;28;20239;-71
2022/04/27 05:22:13;;;;;;;8.60;5.17;;;;;6.00;101856.00;;;;4935807;28;20241;-71
2022/04/27 05:25:01;;;;;;;11.87;5.27;;;;;6.10;101861.00;;;;4947763;28;20322;-70
2022/04/27 05:27:48;;;;;;;9.03;5.50;;;;;6.10;101870.00;;;;4923764;28;20232;-71
2022/04/27 05:33:41;;;;;;;11.53;5.90;;;;;6.30;101883.00;;;;4916267;28;20372;-70
2022/04/27 05:36:28;;;;;;;7.57;5.27;;;;;6.40;101885.00;;;;4920680;28;20300;-71
2022/04/27 05:39:15;;;;;;;11.07;6.23;;;;;6.40;101887.00;;;;4928606;28;20252;-71
2022/04/27 05:42:01;;;;;;;12.60;6.07;;;;;6.50;101882.00;;;;4926506;28;20993;-71
2022/04/27 05:44:47;;;;;;;9.77;5.83;;;;;6.60;101889.00;;;;4922244;28;20313;-71
2022/04/27 05:47:34;;;;;;;8.53;5.30;;;;;6.80;101891.00;;;;4921609;28;20282;-71
2022/04/27 05:50:21;;;;;;;10.07;6.40;;;;;6.90;101838.00;;;;4927812;28;20240;-72
2022/04/27 05:53:08;;;;;;;9.70;5.67;;;;;7.00;101901.00;;;;4928021;28;20229;-70
2022/04/27 05:55:55;;;;;;;10.67;6.27;;;;;7.10;101906.00;;;;4928160;28;20253;-71
2022/04/27 05:58:41;;;;;;;15.53;6.40;;;;;7.10;101910.00;;;;4922217;28;20277;-71
2022/04/27 06:01:27;;;;;;;14.13;6.87;;;;;7.20;101912.00;;;;4940488;28;20235;-71
2022/04/27 06:04:13;;;;;;;11.23;5.57;;;;;7.30;101912.00;;;;4926163;28;20958;-69
2022/04/27 06:07:00;;;;;;;11.40;6.27;;;;;7.50;101906.00;;;;4927792;28;20235;-71
2022/04/27 06:09:47;;;;;;;14.47;7.80;;;;;7.60;101905.00;;;;4924648;28;20241;-69
2022/04/27 06:12:36;;;;;;;8.57;5.20;;;;;7.70;101917.00;;;;4920982;28;20248;-71
2022/04/27 06:15:22;;;;;;;10.10;5.23;;;;;8.00;101914.00;;;;4927699;28;20292;-71
2022/04/27 06:18:09;;;;;;;13.37;6.07;;;;;7.80;101925.00;;;;4927769;28;20698;-70
2022/04/27 06:20:56;;;;;;;13.77;5.90;;;;;8.00;101916.00;;;;4927261;28;20308;-72
2022/04/27 06:23:43;;;;;;;8.10;5.10;;;;;8.10;101928.00;;;;4922113;28;20240;-71
2022/04/27 06:26:33;;;;;;;10.47;5.33;;;;;8.10;101922.00;;;;4920112;28;20240;-71
2022/04/27 06:29:19;;;;;;;11.63;5.23;;;;;8.20;101920.00;;;;4927400;28;20613;-70
2022/04/27 06:32:06;;;;;;;9.90;5.13;;;;;8.50;101928.00;;;;4927069;28;20744;-71
2022/04/27 06:34:53;;;;;;;12.40;4.70;;;;;8.50;101930.00;;;;4927418;28;20268;-69
2022/04/27 06:37:39;;;;;;;11.87;5.07;;;;;8.60;101935.00;;;;4921324;28;20232;-71
2022/04/27 06:40:28;;;;;;;12.27;5.40;;;;;8.60;101900.00;;;;4926998;28;20271;-71
2022/04/27 06:43:14;;;;;;;10.27;5.43;;;;;8.90;101950.00;;;;4927802;28;20241;-71
2022/04/27 06:46:00;;;;;;;12.83;5.80;;;;;9.00;101945.00;;;;4927447;28;20249;-71
2022/04/27 06:48:47;;;;;;;10.97;5.07;;;;;9.10;101948.00;;;;4926657;28;20240;-71
2022/04/27 06:51:33;;;;;;;14.00;5.03;;;;;9.00;101952.00;;;;4925270;28;20717;-71
2022/04/27 06:54:20;;;;;;;12.53;5.63;;;;;9.00;101917.00;;;;4927136;28;20319;-70
2022/04/27 06:57:08;;;;;;;9.97;5.33;;;;;9.10;101948.00;;;;4929870;28;20280;-70
2022/04/27 06:59:54;;;;;;;10.33;5.97;;;;;9.10;101945.00;;;;4932084;28;20273;-71
2022/04/27 07:02:40;;;;;;;8.23;4.67;;;;;9.20;101938.00;;;;4929024;28;20708;-72
2022/04/27 07:05:27;;;;;;;13.60;5.43;;;;;9.40;101950.00;;;;4923379;28;20236;-70
2022/04/27 07:08:13;;;;;;;10.03;4.60;;;;;9.40;101952.00;;;;4931328;28;20244;-70
2022/04/27 07:10:59;;;;;;;8.27;4.67;;;;;9.30;101953.00;;;;4930685;28;20726;-71
2022/04/27 07:13:47;;;;;;;7.33;4.57;;;;;9.60;101954.00;;;;4926126;28;20738;-70
2022/04/27 07:16:33;;;;;;;9.27;4.87;;;;;9.70;101958.00;;;;4924189;28;20251;-70
2022/04/27 07:19:20;;;;;;;8.73;4.60;;;;;9.80;101962.00;;;;4930782;28;20233;-71
2022/04/27 07:22:07;;;;;;;9.00;5.07;;;;;9.70;101959.00;;;;4930172;28;20741;-70
2022/04/27 07:24:53;;;;;;;11.70;5.13;;;;;9.90;101964.00;;;;4930856;28;20557;-71
2022/04/27 07:27:39;;;;;;;7.30;4.13;;;;;10.10;101966.00;;;;4925269;28;20300;-71
2022/04/27 07:30:27;;;;;;;8.03;4.60;;;;;10.00;101972.00;;;;4930363;28;20235;-70
2022/04/27 07:33:13;;;;;;;10.13;4.70;;;;;10.10;101936.00;;;;4930875;28;20386;-72
2022/04/27 07:36:00;;;;;;;12.97;4.83;;;;;10.30;101965.00;;;;4930876;28;20241;-68
2022/04/27 07:38:46;;;;;;;8.00;4.30;;;;;10.40;101944.00;;;;4921872;28;20932;-71
2022/04/27 07:41:32;;;;;;;5.43;3.87;;;;;10.40;101961.00;;;;4923343;28;20230;-71
2022/04/27 07:44:18;;;;;;;8.73;4.17;;;;;10.40;101957.00;;;;4930349;28;20657;-71
2022/04/27 07:47:07;;;;;;;6.83;4.33;;;;;10.40;101964.00;;;;4930199;28;20314;-71
2022/04/27 07:49:54;;;;;;;7.27;3.60;;;;;10.90;101971.00;;;;4930363;28;20246;-70
2022/04/27 07:52:40;;;;;;;8.33;3.53;;;;;10.70;101962.00;;;;4924235;28;20239;-68
2022/04/27 07:55:27;;;;;;;4.63;3.10;;;;;10.80;101977.00;;;;4922361;28;20244;-71
2022/04/27 07:58:13;;;;;;;7.87;3.67;;;;;10.90;101978.00;;;;4930135;28;20733;-70
2022/04/27 08:01:00;;;;;;;10.37;3.30;;;;;10.90;101977.00;;;;4938865;28;20748;-70
2022/04/27 08:03:48;;;;;;;3.80;3.00;;;;;10.90;101980.00;;;;4949145;28;20254;-71
2022/04/27 08:06:36;;;;;;;4.43;2.83;;;;;11.10;101984.00;;;;4923226;28;20264;-69
2022/04/27 08:09:22;;;;;;;7.97;2.87;;;;;11.10;101981.00;;;;4928964;28;20240;-72
2022/04/27 08:12:09;;;;;;;5.73;3.23;;;;;11.50;101980.00;;;;4929528;28;20237;-70
2022/04/27 08:14:55;;;;;;;6.27;3.50;;;;;11.60;101995.00;;;;4929936;28;20288;-72
2022/04/27 08:17:52;;;;;;;5.00;3.73;;;;;11.40;101997.00;;;;4924019;28;20745;-71
2022/04/27 08:23:46;;;;;;;3.63;2.90;;;;;11.60;101997.00;;;;4924448;28;20261;-71
2022/04/27 08:26:32;;;;;;;5.33;2.83;;;;;11.90;101998.00;;;;4922773;28;20247;-70
2022/04/27 08:29:19;;;;;;;4.33;2.60;;;;;12.20;101998.00;;;;4929448;28;20240;-68
2022/04/27 08:32:05;;;;;;;5.90;2.77;;;;;12.00;102002.00;;;;4929533;28;20244;-71
2022/04/27 08:34:51;;;;;;;6.30;3.00;;;;;12.20;102001.00;;;;4929962;28;20287;-72
2022/04/27 08:37:39;;;;;;;6.97;3.20;;;;;12.70;102010.00;;;;4923572;28;20288;-71
2022/04/27 08:40:26;;;;;;;7.43;3.20;;;;;12.80;102013.00;;;;4929001;28;20224;-70
2022/04/27 08:43:14;;;;;;;7.93;3.70;;;;;12.80;102013.00;;;;4929772;28;20307;-69
2022/04/27 08:46:03;;;;;;;5.23;3.20;;;;;12.80;101994.00;;;;4929579;28;20307;-70
2022/04/27 08:48:51;;;;;;;4.43;2.67;;;;;12.80;102011.00;;;;4924625;28;20236;-71
2022/04/27 08:51:38;;;;;;;4.50;2.87;;;;;13.00;102009.00;;;;4924684;28;21203;-70
2022/04/27 08:54:26;;;;;;;22.07;5.20;;;;;13.10;102008.00;;;;4928834;28;20253;-71
2022/04/27 08:57:12;;;;;;;6.97;3.50;;;;;13.30;102012.00;;;;4929107;28;20236;-71
2022/04/27 08:59:58;;;;;;;6.83;3.13;;;;;13.30;102013.00;;;;4930476;28;20302;-71
2022/04/27 09:02:45;;;;;;;6.70;3.30;;;;;13.40;102019.00;;;;4927144;28;20269;-71
2022/04/27 09:05:32;;;;;;;7.10;4.13;;;;;13.50;102011.00;;;;4924116;28;20718;-69
2022/04/27 09:08:18;;;;;;;4.97;3.40;;;;;13.50;102011.00;;;;4925389;28;20245;-70
2022/04/27 09:11:18;;;;;;;5.20;3.20;;;;;13.90;102013.00;;;;4928611;28;20240;-71
2022/04/27 09:14:07;;;;;;;3.97;2.87;;;;;14.00;102016.00;;;;4928837;28;20264;-69
2022/04/27 09:23:21;;;;;;;6.20;3.57;;;;;14.20;102029.00;;;;4910311;28;20276;-71
2022/04/27 09:26:22;;;;;;;5.93;3.83;;;;;14.30;102022.00;;;;4928458;28;20248;-71
2022/04/27 09:29:08;;;;;;;5.30;3.50;;;;;14.30;102027.00;;;;4927070;28;20240;-71
2022/04/27 09:31:56;;;;;;;7.30;3.80;;;;;14.30;102027.00;;;;4947563;28;20244;-70
2022/04/27 09:34:44;;;;;;;6.20;3.90;;;;;14.30;102026.00;;;;4942008;28;20247;-71
2022/04/27 09:37:39;;;;;;;5.60;3.70;;;;;14.50;102021.00;;;;4922603;28;20285;-69
2022/04/27 09:40:25;;;;;;;8.03;3.70;;;;;14.60;102024.00;;;;4927871;28;20304;-71
2022/04/27 09:43:14;;;;;;;7.60;4.07;;;;;14.70;102021.00;;;;4928513;28;20281;-71
2022/04/27 09:46:15;;;;;;;8.07;3.50;;;;;14.90;102032.00;;;;4928229;28;20284;-70
2022/04/27 09:49:09;;;;;;;7.03;4.37;;;;;14.90;102010.00;;;;4924728;28;20236;-70
2022/04/27 09:52:16;;;;;;;5.60;4.00;;;;;14.80;102031.00;;;;4926211;28;20731;-70
2022/04/27 09:55:03;;;;;;;6.63;4.50;;;;;15.00;102033.00;;;;4927941;28;20624;-70
2022/04/27 09:57:55;;;;;;;8.33;4.10;;;;;15.00;102027.00;;;;4928419;28;20342;-72
2022/04/27 10:00:44;;;;;;;5.30;3.60;;;;;14.90;102021.00;;;;4929835;28;20720;-71
2022/04/27 10:03:35;;;;;;;4.90;3.30;;;;;15.20;102025.00;;;;4926206;28;20598;-73
2022/04/27 10:06:21;;;;;;;7.30;4.20;;;;;15.00;102035.00;;;;4927916;28;21045;-70
2022/04/27 10:09:09;;;;;;;8.60;4.20;;;;;15.00;102028.00;;;;4927571;28;20236;-71
2022/04/27 10:12:16;;;;;;;6.90;3.70;;;;;15.20;102020.00;;;;4927488;28;20240;-71
2022/04/27 10:15:02;;;;;;;9.70;4.00;;;;;15.30;102020.00;;;;4928089;28;20785;-72
2022/04/27 10:17:50;;;;;;;5.00;3.33;;;;;15.30;102020.00;;;;4919701;28;20733;-72
2022/04/27 10:20:36;;;;;;;5.43;3.83;;;;;15.20;102021.00;;;;4920989;28;20740;-72
2022/04/27 10:23:24;;;;;;;7.43;3.47;;;;;15.50;102014.00;;;;4927605;28;20284;-70
2022/04/27 10:26:14;;;;;;;5.70;3.43;;;;;15.70;102021.00;;;;4927590;28;20242;-72
2022/04/27 10:29:01;;;;;;;9.10;3.90;;;;;15.70;102020.00;;;;4927633;28;20236;-70
2022/04/27 10:32:05;;;;;;;5.90;3.77;;;;;15.70;102019.00;;;;4926870;28;20308;-70
2022/04/27 10:35:17;;;;;;;5.17;3.70;;;;;15.70;102014.00;;;;4923202;28;20245;-71
2022/04/27 10:38:05;;;;;;;5.27;4.00;;;;;15.70;102019.00;;;;4924726;28;20681;-70
2022/04/27 10:41:04;;;;;;;7.83;3.97;;;;;16.10;102028.00;;;;4927511;28;20240;-71
2022/04/27 10:43:50;;;;;;;12.20;6.13;;;;;16.00;102022.00;;;;4922750;28;20238;-72
2022/04/27 10:46:38;;;;;;;6.93;4.20;;;;;16.10;102036.00;;;;4921286;28;20732;-71
2022/04/27 10:49:26;;;;;;;6.67;3.97;;;;;16.20;102029.00;;;;4927405;28;20253;-72
2022/04/27 10:52:14;;;;;;;7.03;4.30;;;;;16.30;102024.00;;;;4927034;28;20249;-71
2022/04/27 10:55:04;;;;;;;6.87;3.87;;;;;16.40;102036.00;;;;4927496;28;20237;-71
2022/04/27 10:57:51;;;;;;;6.43;4.03;;;;;16.50;102035.00;;;;4923010;28;20375;-72
2022/04/27 11:01:24;;;;;;;6.87;4.20;;;;;16.30;102036.00;;;;4927801;28;20404;-70
2022/04/27 11:04:12;;;;;;;4.90;3.70;;;;;15.60;102023.00;;;;4944396;28;20254;-71
2022/04/27 11:07:21;;;;;;;7.03;3.80;;;;;15.70;102032.00;;;;4946591;28;20239;-71
2022/04/27 11:10:11;;;;;;;6.50;3.77;;;;;15.90;102032.00;;;;4946227;28;20310;-69
2022/04/27 11:12:58;;;;;;;5.53;3.93;;;;;16.10;102031.00;;;;4946560;28;20444;-71
2022/04/27 11:15:45;;;;;;;6.67;4.53;;;;;16.70;102038.00;;;;4925726;28;20848;-72
2022/04/27 11:18:49;;;;;;;7.30;4.00;;;;;17.00;102025.00;;;;4920307;28;20834;-71
2022/04/27 11:21:35;;;;;;;5.97;4.00;;;;;16.90;102024.00;;;;4928857;28;20238;-70
2022/04/27 11:24:23;;;;;;;7.27;4.40;;;;;16.80;102029.00;;;;4926616;28;20235;-70
2022/04/27 11:27:10;;;;;;;5.70;3.60;;;;;16.80;102025.00;;;;4934018;28;20321;-68
2022/04/27 11:29:56;;;;;;;5.53;3.80;;;;;17.00;102025.00;;;;4946550;28;20317;-72
2022/04/27 11:32:47;;;;;;;6.80;3.93;;;;;17.30;102024.00;;;;4925462;28;20241;-69
2022/04/27 11:35:41;;;;;;;12.83;3.63;;;;;17.50;102026.00;;;;4938947;28;20231;-71
2022/04/27 11:38:34;;;;;;;7.77;4.33;;;;;17.40;102021.00;;;;4931868;28;20234;-71
2022/04/27 11:41:23;;;;;;;10.77;4.67;;;;;17.60;102025.00;;;;4945619;28;20659;-71
2022/04/27 11:44:10;;;;;;;6.30;3.50;;;;;17.90;102031.00;;;;4949637;28;20768;-71
2022/04/27 11:46:56;;;;;;;5.30;4.23;;;;;17.70;102036.00;;;;4949496;28;20240;-71
2022/04/27 11:49:54;;;;;;;6.80;4.60;;;;;17.60;102046.00;;;;4928863;28;20240;-70
2022/04/27 11:52:40;;;;;;;5.87;4.43;;;;;17.30;102020.00;;;;4923981;28;20307;-68
2022/04/27 11:55:27;;;;;;;7.67;4.50;;;;;17.40;102031.00;;;;4944523;28;20863;-71
2022/04/27 11:58:22;;;;;;;7.63;4.90;;;;;17.80;102011.00;;;;4949878;28;20368;-70
2022/04/27 12:01:08;;;;;;;6.23;4.57;;;;;18.30;102024.00;;;;4953634;28;20239;-70
2022/04/27 12:03:55;;;;;;;6.37;4.20;;;;;18.40;102028.00;;;;4949490;28;20361;-71
2022/04/27 12:06:41;;;;;;;9.33;4.40;;;;;18.20;102030.00;;;;4924403;28;20385;-71
2022/04/27 12:09:27;;;;;;;7.37;4.13;;;;;18.40;102017.00;;;;4929585;28;20240;-71
2022/04/27 12:12:14;;;;;;;6.97;4.43;;;;;18.60;102022.00;;;;4948930;28;20298;-70
2022/04/27 12:15:07;;;;;;;6.80;4.53;;;;;18.60;102014.00;;;;4949339;28;20248;-72
2022/04/27 12:17:55;;;;;;;7.93;5.07;;;;;18.30;102015.00;;;;4925431;28;20722;-70
2022/04/27 12:20:42;;;;;;;7.20;4.80;;;;;18.30;102011.00;;;;4923639;28;20300;-71
2022/04/27 12:23:38;;;;;;;7.20;5.10;;;;;18.20;102017.00;;;;4922137;28;20236;-71
2022/04/27 12:26:25;;;;;;;7.73;4.37;;;;;18.30;102012.00;;;;4929596;28;20633;-71
2022/04/27 12:29:12;;;;;;;7.10;4.77;;;;;18.70;102008.00;;;;4929836;28;20256;-71
2022/04/27 12:32:00;;;;;;;6.47;5.07;;;;;18.40;102011.00;;;;4929636;28;20344;-70
2022/04/27 12:37:50;;;;;;;7.10;4.50;;;;;18.00;102006.00;;;;4924748;28;20709;-71
2022/04/27 12:40:37;;;;;;;7.37;4.47;;;;;18.00;102002.00;;;;4922911;28;20229;-69
2022/04/27 12:43:24;;;;;;;6.23;4.53;;;;;18.30;101995.00;;;;4929517;28;20873;-72
2022/04/27 12:46:12;;;;;;;9.27;5.20;;;;;18.60;101998.00;;;;4929659;28;20610;-70
2022/04/27 12:49:05;;;;;;;6.23;4.23;;;;;18.90;102005.00;;;;4929145;28;20244;-72
2022/04/27 12:51:52;;;;;;;7.93;4.83;;;;;19.00;102007.00;;;;4926431;28;20241;-72
2022/04/27 12:54:38;;;;;;;7.40;4.87;;;;;19.20;102000.00;;;;4922740;28;20610;-72
2022/04/27 12:57:25;;;;;;;11.57;4.67;;;;;19.60;102002.00;;;;4929075;28;20657;-71
2022/04/27 13:00:12;;;;;;;7.67;4.97;;;;;19.70;102005.00;;;;4931906;28;20312;-71
2022/04/27 13:02:59;;;;;;;7.90;4.80;;;;;20.20;101994.00;;;;4948414;28;20318;-70
2022/04/27 13:05:47;;;;;;;8.50;4.67;;;;;20.40;101997.00;;;;4927623;28;20237;-72
2022/04/27 13:08:33;;;;;;;6.83;4.93;;;;;20.10;101995.00;;;;4941212;28;20880;-74
2022/04/27 13:14:25;;;;;;;7.83;4.80;;;;;19.50;101984.00;;;;4947877;28;20306;-72
2022/04/27 13:17:12;;;;;;;8.90;5.03;;;;;19.30;101991.00;;;;4948036;28;20627;-71
2022/04/27 13:19:59;;;;;;;8.77;6.10;;;;;19.30;101989.00;;;;4925165;28;20249;-72
2022/04/27 13:22:47;;;;;;;8.97;5.07;;;;;18.90;101985.00;;;;4929167;28;20237;-72
2022/04/27 13:25:33;;;;;;;11.20;5.10;;;;;19.10;101985.00;;;;4921630;28;20368;-68
2022/04/27 13:28:22;;;;;;;7.37;4.90;;;;;18.70;101983.00;;;;4928278;28;20312;-71
2022/04/27 13:31:08;;;;;;;8.23;5.10;;;;;19.40;101979.00;;;;4928273;28;20248;-71
2022/04/27 13:33:54;;;;;;;7.90;4.93;;;;;20.00;101948.00;;;;4928363;28;20236;-69
2022/04/27 13:36:40;;;;;;;6.93;4.90;;;;;20.30;101976.00;;;;4922439;28;20236;-70
2022/04/27 13:39:28;;;;;;;8.30;5.00;;;;;20.50;101981.00;;;;4928564;28;20232;-71
2022/04/27 13:42:15;;;;;;;7.60;4.90;;;;;20.70;101971.00;;;;4928537;28;20236;-72
2022/04/27 13:45:01;;;;;;;9.37;4.90;;;;;20.90;101966.00;;;;4928627;28;20717;-71
2022/04/27 13:47:48;;;;;;;7.27;4.90;;;;;21.00;101987.00;;;;4928760;28;20240;-71
2022/04/27 13:50:34;;;;;;;7.77;4.80;;;;;21.30;101975.00;;;;4924296;28;20328;-71
2022/04/27 13:53:20;;;;;;;9.73;5.00;;;;;21.00;101968.00;;;;4928048;28;20343;-70
2022/04/27 13:56:08;;;;;;;9.97;5.87;;;;;21.10;101970.00;;;;4927905;28;20242;-71
2022/04/27 13:58:54;;;;;;;9.70;4.93;;;;;21.00;101966.00;;;;4928046;28;20301;-72
2022/04/27 14:01:41;;;;;;;7.77;4.50;;;;;21.70;101966.00;;;;4942434;28;20243;-70
2022/04/27 14:04:27;;;;;;;9.00;5.47;;;;;21.70;101960.00;;;;4947097;28;20236;-70
2022/04/27 14:07:13;;;;;;;7.30;4.70;;;;;21.80;101966.00;;;;4944757;28;20304;-69
2022/04/27 14:10:00;;;;;;;7.97;4.73;;;;;21.80;101969.00;;;;4946986;28;20576;-72
2022/04/27 14:18:55;;;;;;;7.73;4.47;;;;;21.50;101960.00;;;;4923609;28;20256;-70
2022/04/27 14:21:41;;;;;;;6.90;4.53;;;;;20.90;101957.00;;;;4921582;28;20237;-71
2022/04/27 14:24:28;;;;;;;8.97;5.13;;;;;20.30;101949.00;;;;4927832;28;20263;-71
2022/04/27 14:27:15;;;;;;;7.33;4.90;;;;;20.60;101949.00;;;;4928135;28;20323;-71
2022/04/27 14:30:03;;;;;;;10.07;4.90;;;;;20.30;101950.00;;;;4927648;28;20244;-71